Elmdale, Kansas
Current Conditions -  °F | °C
As of 8:53 PM on Wednesday 22 Oct 2014 (Local Time) from KEMP Reporting Station
Few Clouds Few Clouds  
Wind Chill: 65°   Ceiling: Unl
Heat Index: 65°   Visibility: 10mi
Dew Point: 57°   Wind: 10mph
Humidity: 75%   Direction: 160°SSE
Pressure: 30.08"   Gusts: NA
Location:  38.37°N, 96.64°W
Report Text: KEMP 230153Z AUTO 16009KT 10SM FEW055 18/14 A3008 RMK AO2 SLP182 T01830139
Loading
Personal Weather Stations






























Interactive Weather Map
Tropical Storm Tracking
New forecast layout! Learn more

10-Day Weather Forecast

Advertisements
Track Severe Weather on mobile